Time;durP1;ratioP1;P1;durP2;ratioP2;P2;SDS_P1;SDS_P2;PMS_P1;PMS_P2;Temp;Humidity;BMP_temperature;BMP_pressure;BME280_temperature;BME280_humidity;BME280_pressure;Samples;Min_cycle;Max_cycle;Signal;HPM_P1;HPM_P2
2021/10/30 00:02:15;;;;;;;11.07;6.05;;;;;;;10.85;50.62;100605.22;4984988;28;20069;-69
2021/10/30 00:04:41;;;;;;;8.60;5.47;;;;;;;11.25;49.39;100613.84;4971176;28;20048;-68
2021/10/30 00:07:08;;;;;;;7.80;4.85;;;;;;;11.19;49.68;100614.13;4984128;28;20053;-67
2021/10/30 00:09:37;;;;;;;7.93;6.15;;;;;;;11.28;49.61;100613.69;4983024;28;20062;-68
2021/10/30 00:12:06;;;;;;;9.82;5.53;;;;;;;11.39;49.27;100621.88;4969096;28;20105;-67
2021/10/30 00:14:34;;;;;;;8.35;6.03;;;;;;;11.35;49.40;100622.97;4985791;28;20157;-66
2021/10/30 00:17:00;;;;;;;9.73;6.13;;;;;;;11.27;49.30;100617.25;4974645;28;20046;-66
2021/10/30 00:19:25;;;;;;;11.25;6.55;;;;;;;11.22;49.47;100619.25;4984724;28;20483;-64
2021/10/30 00:21:52;;;;;;;15.35;6.90;;;;;;;11.18;49.70;100617.69;4983425;28;20133;-63
2021/10/30 00:24:18;;;;;;;12.50;5.88;;;;;;;11.18;49.25;100613.28;4985104;28;20663;-64
2021/10/30 00:26:49;;;;;;;9.60;6.43;;;;;;;10.86;50.14;100609.56;4983841;28;20516;-65
2021/10/30 00:29:17;;;;;;;9.32;5.82;;;;;;;10.99;49.93;100618.50;4960710;28;20431;-66
2021/10/30 00:31:43;;;;;;;10.20;5.55;;;;;;;10.98;50.05;100623.81;4989302;28;20104;-66
2021/10/30 00:34:08;;;;;;;9.27;5.93;;;;;;;11.04;49.70;100621.78;4983305;28;20423;-66
2021/10/30 00:36:34;;;;;;;10.00;5.28;;;;;;;10.93;50.04;100616.19;4976112;28;20573;-65
2021/10/30 00:39:02;;;;;;;10.73;6.30;;;;;;;10.86;50.23;100624.38;4985491;28;20053;-65
2021/10/30 00:41:31;;;;;;;11.07;6.50;;;;;;;10.69;50.80;100619.88;4983265;28;20629;-64
2021/10/30 00:44:05;;;;;;;11.52;6.47;;;;;;;10.76;50.37;100616.91;4985715;28;20057;-66
2021/10/30 00:46:33;;;;;;;13.45;6.07;;;;;;;10.76;50.23;100634.38;4957323;28;20038;-64
2021/10/30 00:48:58;;;;;;;14.63;6.50;;;;;;;10.80;50.45;100628.09;4976398;28;20650;-65
2021/10/30 00:51:25;;;;;;;11.02;6.60;;;;;;;10.73;50.67;100630.13;4972709;28;20137;-65
2021/10/30 00:53:52;;;;;;;12.13;7.18;;;;;;;10.57;51.44;100632.56;4987085;28;20415;-65
2021/10/30 00:56:19;;;;;;;10.60;6.85;;;;;;;10.70;51.00;100626.78;4981267;28;20116;-65
2021/10/30 00:58:47;;;;;;;12.30;6.55;;;;;;;10.63;51.66;100628.84;4982029;28;20460;-65
2021/10/30 01:01:12;;;;;;;11.43;6.75;;;;;;;10.57;51.58;100629.97;4978803;28;20066;-65
2021/10/30 01:03:44;;;;;;;12.82;6.35;;;;;;;10.22;52.64;100627.09;4983597;28;20038;-66
2021/10/30 01:06:09;;;;;;;10.93;6.88;;;;;;;10.61;51.44;100618.44;4980510;28;20038;-65
2021/10/30 01:08:35;;;;;;;8.20;6.30;;;;;;;10.51;52.53;100619.78;4953181;28;20034;-66
2021/10/30 01:11:06;;;;;;;7.43;5.20;;;;;;;10.50;52.46;100620.66;4975315;28;20318;-66
2021/10/30 01:13:32;;;;;;;10.52;5.78;;;;;;;10.62;52.14;100621.91;4968039;28;20057;-65
2021/10/30 01:16:01;;;;;;;10.07;6.47;;;;;;;10.55;52.57;100613.50;4982896;28;20373;-65
2021/10/30 01:18:26;;;;;;;13.20;5.72;;;;;;;10.66;51.85;100614.78;4985253;28;20263;-65
2021/10/30 01:20:54;;;;;;;9.52;5.45;;;;;;;10.48;52.87;100613.81;4983330;28;20220;-65
2021/10/30 01:23:22;;;;;;;11.02;5.60;;;;;;;10.57;52.46;100616.91;4969045;28;20399;-65
2021/10/30 01:25:54;;;;;;;8.48;5.25;;;;;;;10.44;52.69;100615.75;4983918;28;20492;-65
2021/10/30 01:28:20;;;;;;;12.43;5.47;;;;;;;10.63;51.98;100616.59;4983753;28;20041;-65
2021/10/30 01:30:48;;;;;;;10.10;5.50;;;;;;;10.61;52.48;100613.22;4968026;28;20038;-66
2021/10/30 01:33:14;;;;;;;6.55;4.97;;;;;;;10.62;52.45;100616.69;4988083;28;20030;-66
2021/10/30 01:35:41;;;;;;;7.22;4.70;;;;;;;10.63;52.36;100618.38;4985270;28;20130;-66
2021/10/30 01:38:08;;;;;;;11.02;5.13;;;;;;;10.56;52.85;100619.56;4986574;28;20308;-65
2021/10/30 01:40:46;;;;;;;11.90;4.75;;;;;;;10.58;52.73;100620.34;4975085;28;20053;-65
2021/10/30 01:43:15;;;;;;;9.43;5.07;;;;;;;10.31;53.58;100614.56;4987499;28;20042;-67
2021/10/30 01:45:42;;;;;;;6.78;4.93;;;;;;;10.47;52.74;100605.13;4986693;28;20467;-66
2021/10/30 01:48:08;;;;;;;9.95;5.13;;;;;;;10.49;52.66;100607.69;4982183;28;20046;-66
2021/10/30 01:50:34;;;;;;;6.80;4.03;;;;;;;10.39;53.10;100604.63;4988097;28;20038;-65
2021/10/30 01:53:03;;;;;;;9.48;4.53;;;;;;;10.30;52.89;100615.47;4988574;28;20096;-65
2021/10/30 01:55:31;;;;;;;7.35;4.78;;;;;;;10.14;53.66;100613.50;4989388;28;20046;-67
2021/10/30 01:57:59;;;;;;;9.63;4.40;;;;;;;10.13;53.78;100609.22;4969679;28;20562;-66
2021/10/30 02:00:25;;;;;;;8.65;4.70;;;;;;;10.19;53.24;100611.56;4985963;28;20025;-66
2021/10/30 02:02:53;;;;;;;6.18;4.10;;;;;;;10.13;53.47;100610.97;4986772;28;20076;-65
2021/10/30 02:05:19;;;;;;;6.60;4.97;;;;;;;10.11;52.96;100603.19;4986982;28;20038;-66
2021/10/30 02:07:45;;;;;;;4.63;3.70;;;;;;;10.02;53.13;100601.81;4987602;28;20401;-66
2021/10/30 02:10:14;;;;;;;6.80;4.20;;;;;;;9.94;53.26;100601.28;4989602;28;20089;-64
2021/10/30 02:12:41;;;;;;;7.80;3.72;;;;;;;9.84;53.48;100605.22;4986632;28;20292;-64
2021/10/30 02:15:08;;;;;;;6.55;4.10;;;;;;;9.73;53.52;100608.22;4985718;28;20342;-65
2021/10/30 02:17:35;;;;;;;5.10;3.67;;;;;;;9.65;53.79;100612.03;4988385;28;20050;-67
2021/10/30 02:20:02;;;;;;;8.45;4.53;;;;;;;9.62;54.10;100609.56;4985696;28;20523;-68
2021/10/30 02:22:33;;;;;;;7.68;4.22;;;;;;;9.58;53.62;100614.06;4978716;28;20084;-67
2021/10/30 02:24:58;;;;;;;7.70;4.10;;;;;;;9.50;53.86;100608.28;4989618;28;20037;-67
2021/10/30 02:27:24;;;;;;;5.20;3.28;;;;;;;9.45;53.80;100612.84;4957019;28;20503;-66
2021/10/30 02:29:49;;;;;;;8.52;3.45;;;;;;;9.49;53.91;100614.41;4984043;28;20034;-66
2021/10/30 02:32:14;;;;;;;5.60;4.22;;;;;;;9.38;54.54;100612.22;4989508;28;20072;-67
2021/10/30 02:34:40;;;;;;;8.50;3.70;;;;;;;9.42;54.38;100612.97;4971401;28;20080;-67
2021/10/30 02:37:07;;;;;;;6.75;3.90;;;;;;;9.34;54.66;100606.31;4954278;28;20129;-66
2021/10/30 02:39:35;;;;;;;11.13;3.90;;;;;;;9.26;54.62;100600.53;4985514;28;20061;-68
2021/10/30 02:42:02;;;;;;;6.57;3.38;;;;;;;9.24;54.27;100594.53;4987837;28;20053;-66
2021/10/30 02:44:28;;;;;;;6.55;3.15;;;;;;;9.21;54.51;100586.81;4987222;28;20395;-67
2021/10/30 02:46:53;;;;;;;10.43;4.55;;;;;;;9.15;54.54;100592.28;4983366;28;20046;-66
2021/10/30 02:49:22;;;;;;;5.70;3.42;;;;;;;9.08;53.80;100585.59;4986047;28;20562;-67
2021/10/30 02:51:47;;;;;;;7.05;4.03;;;;;;;8.94;54.37;100586.09;4959435;28;20404;-67
2021/10/30 02:54:13;;;;;;;5.38;3.42;;;;;;;8.84;53.83;100584.75;4983549;28;20034;-66
2021/10/30 02:56:38;;;;;;;6.30;3.88;;;;;;;8.86;55.49;100585.56;4987226;28;20249;-67
2021/10/30 02:59:03;;;;;;;4.65;4.05;;;;;;;8.95;55.35;100587.81;4972786;28;20564;-65
2021/10/30 03:01:29;;;;;;;6.00;3.42;;;;;;;8.84;55.73;100582.16;4983481;28;20073;-66
2021/10/30 03:03:54;;;;;;;6.90;4.57;;;;;;;8.96;55.21;100579.94;4986560;28;20058;-65
2021/10/30 03:06:23;;;;;;;5.00;3.60;;;;;;;8.93;55.53;100590.47;4982001;28;20343;-65
2021/10/30 03:08:50;;;;;;;6.82;4.00;;;;;;;8.84;54.78;100580.41;4968882;28;20034;-65
2021/10/30 03:11:18;;;;;;;7.30;4.15;;;;;;;8.77;55.16;100577.16;4968587;28;20390;-65
2021/10/30 03:13:53;;;;;;;6.22;4.50;;;;;;;8.82;54.84;100576.16;4988825;28;20033;-66
2021/10/30 03:16:18;;;;;;;7.82;4.75;;;;;;;8.71;55.76;100579.16;4984913;28;20038;-65
2021/10/30 03:18:44;;;;;;;10.18;4.43;;;;;;;8.78;55.04;100588.44;4985852;28;20061;-65
2021/10/30 03:21:10;;;;;;;9.38;5.38;;;;;;;8.68;55.50;100581.84;4958607;28;20050;-65
2021/10/30 03:23:36;;;;;;;10.73;5.28;;;;;;;8.65;55.37;100584.53;4985664;28;20112;-66
2021/10/30 03:26:02;;;;;;;8.85;5.47;;;;;;;8.67;55.14;100572.31;4986953;28;20045;-67
2021/10/30 03:28:28;;;;;;;10.38;6.68;;;;;;;8.68;55.44;100574.03;4970225;28;20403;-69
2021/10/30 03:30:54;;;;;;;9.63;6.20;;;;;;;8.77;54.88;100574.56;4972959;28;20046;-70
2021/10/30 03:33:19;;;;;;;11.85;7.18;;;;;;;8.68;55.08;100566.22;4970276;28;20038;-66
2021/10/30 03:35:45;;;;;;;11.10;6.70;;;;;;;8.68;55.32;100566.22;4987370;28;20526;-67
2021/10/30 03:38:11;;;;;;;12.70;7.07;;;;;;;8.63;55.54;100569.00;4988367;28;20041;-67
2021/10/30 03:40:43;;;;;;;11.40;7.03;;;;;;;8.64;55.44;100562.84;4989152;28;20035;-67
2021/10/30 03:43:11;;;;;;;14.95;7.65;;;;;;;8.65;55.44;100561.09;4988429;28;20046;-67
2021/10/30 03:45:39;;;;;;;13.40;7.22;;;;;;;8.63;54.92;100560.31;4984968;28;20038;-65
2021/10/30 03:48:07;;;;;;;11.38;7.10;;;;;;;8.59;55.13;100562.19;4984256;28;20850;-67
2021/10/30 03:50:37;;;;;;;12.57;7.18;;;;;;;8.61;54.86;100551.72;4983967;28;20037;-64
2021/10/30 03:53:06;;;;;;;15.85;8.02;;;;;;;8.62;54.92;100542.97;4986356;28;20065;-64
2021/10/30 03:55:33;;;;;;;10.25;6.72;;;;;;;8.62;54.78;100549.03;4983160;28;20714;-65
2021/10/30 03:58:00;;;;;;;13.07;6.63;;;;;;;8.61;54.39;100541.28;4969411;28;20116;-65
2021/10/30 04:00:27;;;;;;;11.80;7.07;;;;;;;8.57;54.29;100541.38;4986287;28;20534;-67
2021/10/30 04:02:52;;;;;;;11.15;6.25;;;;;;;8.44;54.54;100542.75;4969343;28;20742;-65
2021/10/30 04:05:17;;;;;;;17.85;7.63;;;;;;;8.36;54.83;100542.19;4967921;28;20038;-65
2021/10/30 04:07:45;;;;;;;11.80;6.88;;;;;;;8.29;54.81;100532.88;4988541;28;20141;-66
2021/10/30 04:10:11;;;;;;;8.65;6.25;;;;;;;8.24;54.50;100543.47;4987135;28;20038;-65
2021/10/30 04:12:36;;;;;;;12.40;7.57;;;;;;;8.25;54.86;100541.69;4985146;28;20041;-66
2021/10/30 04:15:03;;;;;;;13.15;7.82;;;;;;;8.27;55.24;100545.97;4968886;28;20046;-66
2021/10/30 04:17:34;;;;;;;13.18;8.30;;;;;;;8.32;55.53;100540.59;4970955;28;20066;-66
2021/10/30 04:20:00;;;;;;;12.95;7.22;;;;;;;8.31;55.61;100547.53;4987231;28;20034;-66
2021/10/30 04:22:31;;;;;;;13.52;7.97;;;;;;;8.35;55.22;100545.69;4984030;28;20034;-66
2021/10/30 04:24:57;;;;;;;12.50;8.10;;;;;;;8.28;55.78;100554.63;4985761;28;20052;-66
2021/10/30 04:27:23;;;;;;;18.88;8.57;;;;;;;8.42;55.51;100547.16;4941933;28;20046;-66
2021/10/30 04:29:48;;;;;;;15.15;7.85;;;;;;;8.39;55.60;100552.50;4987772;28;20064;-66
2021/10/30 04:32:15;;;;;;;17.08;8.70;;;;;;;8.43;55.47;100541.06;4982763;28;20042;-64
2021/10/30 04:34:58;;;;;;;15.10;8.43;;;;;;;8.41;55.58;100545.47;4983499;28;20042;-64
2021/10/30 04:37:28;;;;;;;18.92;9.30;;;;;;;8.45;55.52;100544.47;4984450;28;20034;-65
2021/10/30 04:39:54;;;;;;;14.77;9.75;;;;;;;8.52;55.44;100543.31;4984711;28;20038;-65
2021/10/30 04:42:20;;;;;;;15.85;8.57;;;;;;;8.51;55.27;100538.16;4984169;28;20045;-66
2021/10/30 04:44:48;;;;;;;10.20;7.70;;;;;;;8.50;55.49;100526.91;4983403;28;20030;-66
2021/10/30 04:47:23;;;;;;;18.83;10.30;;;;;;;8.53;55.21;100524.16;4953396;28;20045;-66
2021/10/30 04:49:49;;;;;;;14.40;9.65;;;;;;;8.51;55.12;100544.22;4985645;28;20498;-66
2021/10/30 04:52:15;;;;;;;16.02;9.65;;;;;;;8.54;55.20;100546.72;4958093;28;20088;-65
2021/10/30 04:54:42;;;;;;;17.02;8.60;;;;;;;8.51;55.36;100544.22;4955227;28;20026;-65
2021/10/30 04:57:08;;;;;;;17.30;9.90;;;;;;;8.58;55.47;100542.22;4981883;28;20462;-66
2021/10/30 04:59:33;;;;;;;15.75;9.43;;;;;;;8.60;55.20;100536.97;4982157;28;20042;-65
2021/10/30 05:02:00;;;;;;;22.17;9.05;;;;;;;8.59;54.98;100528.31;4985911;28;20676;-63
2021/10/30 05:04:26;;;;;;;17.08;8.90;;;;;;;8.64;55.14;100512.50;4990610;28;20034;-66
2021/10/30 05:06:51;;;;;;;15.52;9.30;;;;;;;8.68;54.95;100516.72;4990834;28;20466;-67
2021/10/30 05:09:17;;;;;;;16.40;9.25;;;;;;;8.67;54.59;100515.00;4973635;28;20033;-67
2021/10/30 05:11:42;;;;;;;17.73;9.50;;;;;;;8.71;54.78;100520.06;4982620;28;20414;-65
2021/10/30 05:14:10;;;;;;;15.20;8.60;;;;;;;8.70;54.20;100520.94;4975887;28;20072;-65
2021/10/30 05:16:35;;;;;;;17.35;9.38;;;;;;;8.68;54.41;100527.13;4965823;28;20681;-65
2021/10/30 05:19:01;;;;;;;13.05;7.70;;;;;;;8.73;54.13;100520.84;4987883;28;20966;-66
2021/10/30 05:21:29;;;;;;;17.17;8.77;;;;;;;8.77;54.15;100499.00;4964729;28;20045;-65
2021/10/30 05:23:56;;;;;;;14.13;8.30;;;;;;;8.82;53.60;100484.94;4978147;28;20527;-65
2021/10/30 05:26:26;;;;;;;17.98;9.18;;;;;;;8.84;53.93;100481.34;4985646;28;20038;-64
2021/10/30 05:28:51;;;;;;;14.85;8.57;;;;;;;8.80;53.68;100495.41;4990566;28;20041;-64
2021/10/30 05:31:17;;;;;;;16.35;8.80;;;;;;;8.79;53.49;100506.75;4988492;28;20121;-64
2021/10/30 05:33:43;;;;;;;17.08;8.80;;;;;;;8.82;53.15;100488.38;4992355;28;20034;-66
2021/10/30 05:36:37;;;;;;;14.48;8.35;;;;;;;8.89;53.18;100482.03;4972818;28;20050;-65
2021/10/30 05:39:16;;;;;;;13.68;8.60;;;;;;;8.83;53.23;100469.25;4966595;28;20032;-66
2021/10/30 05:41:42;;;;;;;11.63;7.25;;;;;;;8.84;53.01;100465.72;4975930;28;20137;-67
2021/10/30 05:44:08;;;;;;;18.38;7.93;;;;;;;8.94;52.43;100485.31;4988102;28;20045;-65
2021/10/30 05:46:36;;;;;;;12.43;8.07;;;;;;;8.81;52.60;100475.41;4975331;28;20038;-65
2021/10/30 05:49:01;;;;;;;15.32;8.25;;;;;;;8.82;52.81;100479.72;4974769;28;20034;-65
2021/10/30 05:51:33;;;;;;;14.95;7.65;;;;;;;8.67;53.14;100483.72;4985940;28;20034;-65
2021/10/30 05:53:59;;;;;;;13.05;7.00;;;;;;;8.73;53.20;100491.34;4986642;28;20388;-65
2021/10/30 05:56:24;;;;;;;11.50;6.63;;;;;;;8.82;52.42;100487.53;4987212;28;20038;-66
2021/10/30 05:58:50;;;;;;;13.25;7.28;;;;;;;8.90;52.45;100485.50;4989287;28;20026;-65
2021/10/30 06:01:15;;;;;;;14.40;7.38;;;;;;;8.93;52.68;100494.03;4986249;28;20542;-67
2021/10/30 06:03:41;;;;;;;12.10;7.53;;;;;;;8.95;52.60;100492.22;4972068;28;20034;-65
2021/10/30 06:06:06;;;;;;;12.13;6.65;;;;;;;9.08;51.87;100473.50;4984707;28;20034;-65
2021/10/30 06:08:34;;;;;;;13.15;7.70;;;;;;;9.05;52.01;100465.78;4986430;28;20034;-66
2021/10/30 06:10:59;;;;;;;10.20;7.03;;;;;;;9.07;51.76;100462.19;4988156;28;20172;-66
2021/10/30 06:13:32;;;;;;;11.45;6.97;;;;;;;9.07;52.06;100437.88;4990091;28;20022;-65
2021/10/30 06:15:58;;;;;;;16.50;8.65;;;;;;;9.10;51.91;100448.22;4977451;28;20176;-69
2021/10/30 06:18:23;;;;;;;14.00;7.25;;;;;;;9.18;51.48;100448.72;4988486;28;20117;-65
2021/10/30 06:20:51;;;;;;;11.70;7.28;;;;;;;8.91;52.29;100454.13;4988640;28;20122;-68
2021/10/30 06:23:16;;;;;;;12.18;6.90;;;;;;;9.07;51.85;100450.94;4970836;28;20229;-65
2021/10/30 06:25:43;;;;;;;10.40;7.05;;;;;;;9.02;52.04;100439.84;4983948;28;20064;-65
2021/10/30 06:28:11;;;;;;;9.45;6.00;;;;;;;8.99;51.55;100438.22;4987962;28;20038;-65
2021/10/30 06:30:37;;;;;;;15.68;7.45;;;;;;;9.12;51.39;100430.72;4987048;28;20066;-64
2021/10/30 06:33:02;;;;;;;9.77;6.28;;;;;;;9.22;50.96;100426.00;4987030;28;20076;-66
2021/10/30 06:35:28;;;;;;;9.65;5.55;;;;;;;9.16;51.13;100427.94;4983905;28;21280;-66
2021/10/30 06:37:57;;;;;;;11.38;6.88;;;;;;;9.31;50.90;100423.84;4973069;28;20056;-66
2021/10/30 06:40:25;;;;;;;7.88;6.03;;;;;;;9.23;51.44;100420.72;4986402;28;20433;-67
2021/10/30 06:42:52;;;;;;;10.48;5.90;;;;;;;9.01;51.69;100412.06;4989236;28;20036;-66
2021/10/30 06:45:18;;;;;;;9.63;6.25;;;;;;;9.25;51.25;100413.66;4984388;28;20038;-67
2021/10/30 06:47:46;;;;;;;8.73;5.93;;;;;;;9.37;50.54;100410.53;4986720;28;20033;-67
2021/10/30 06:50:20;;;;;;;13.68;6.85;;;;;;;9.22;50.87;100411.19;4975873;28;20065;-68
2021/10/30 06:52:50;;;;;;;8.65;5.95;;;;;;;9.27;51.13;100416.22;4987406;28;20034;-67
2021/10/30 06:55:17;;;;;;;12.13;6.82;;;;;;;9.31;50.75;100413.41;4984605;28;20057;-66
2021/10/30 06:57:43;;;;;;;13.95;6.80;;;;;;;9.35;50.65;100419.34;4974295;28;20475;-66
2021/10/30 07:00:09;;;;;;;10.10;6.30;;;;;;;9.31;50.66;100423.84;4987281;28;20045;-67
2021/10/30 07:02:35;;;;;;;10.35;6.03;;;;;;;9.32;51.04;100425.56;4984689;28;20038;-67
2021/10/30 07:05:01;;;;;;;13.95;5.55;;;;;;;9.34;50.70;100431.56;4977769;28;20042;-65
2021/10/30 07:07:29;;;;;;;13.10;5.50;;;;;;;9.17;51.23;100431.41;4985055;28;20030;-64
2021/10/30 07:09:59;;;;;;;10.25;5.45;;;;;;;9.43;50.65;100424.22;4984089;28;20087;-66
2021/10/30 07:12:30;;;;;;;11.32;5.40;;;;;;;9.38;50.69;100425.28;4951505;28;20038;-66
2021/10/30 07:14:56;;;;;;;11.23;5.68;;;;;;;9.22;50.58;100416.41;4987144;28;20447;-65
2021/10/30 07:17:22;;;;;;;12.80;5.82;;;;;;;9.46;50.44;100400.66;4981532;28;20034;-65
2021/10/30 07:19:49;;;;;;;8.88;5.03;;;;;;;9.50;50.40;100404.78;4972492;28;20038;-66
2021/10/30 07:22:16;;;;;;;10.20;5.72;;;;;;;9.69;49.62;100410.06;4983467;28;20041;-66
2021/10/30 07:24:43;;;;;;;12.65;5.80;;;;;;;9.65;49.63;100411.97;4982697;28;20164;-66
2021/10/30 07:27:08;;;;;;;11.23;6.10;;;;;;;9.39;50.32;100411.34;4969604;28;20046;-65
2021/10/30 07:29:34;;;;;;;7.72;5.65;;;;;;;9.41;50.73;100408.66;4970847;28;20095;-65
2021/10/30 07:32:02;;;;;;;8.05;5.32;;;;;;;9.28;50.79;100408.34;4986441;28;20053;-66
2021/10/30 07:34:28;;;;;;;8.77;5.45;;;;;;;9.49;50.14;100405.72;4971919;28;20038;-66
2021/10/30 07:36:54;;;;;;;9.00;5.38;;;;;;;9.71;49.56;100406.47;4981163;28;20042;-65
2021/10/30 07:39:20;;;;;;;10.20;4.78;;;;;;;9.64;50.22;100407.66;4983259;28;20122;-65
2021/10/30 07:41:46;;;;;;;10.75;5.10;;;;;;;9.82;49.26;100415.66;4981880;28;20133;-65
2021/10/30 07:44:11;;;;;;;15.88;4.72;;;;;;;9.74;49.60;100410.72;4987303;28;20490;-66
2021/10/30 07:46:38;;;;;;;8.70;5.03;;;;;;;9.84;49.54;100408.59;4968535;28;20419;-64
2021/10/30 07:49:06;;;;;;;9.63;5.28;;;;;;;9.61;50.27;100407.81;4983692;28;20038;-67
2021/10/30 07:51:34;;;;;;;10.52;5.13;;;;;;;9.51;50.17;100414.31;4984221;28;20515;-66
2021/10/30 07:53:59;;;;;;;7.97;5.00;;;;;;;9.69;49.84;100407.47;4981331;28;20383;-66
2021/10/30 07:56:25;;;;;;;6.80;3.75;;;;;;;9.68;49.92;100410.97;4983828;28;20523;-66
2021/10/30 07:58:50;;;;;;;7.88;5.05;;;;;;;9.84;49.41;100411.22;4967123;28;20316;-65
2021/10/30 08:01:19;;;;;;;8.40;5.70;;;;;;;9.47;50.25;100408.38;4983204;28;20110;-65
2021/10/30 08:03:44;;;;;;;9.80;4.97;;;;;;;9.66;49.89;100407.63;4963356;28;20036;-65
2021/10/30 08:06:10;;;;;;;7.40;4.10;;;;;;;9.74;49.62;100411.56;4966070;28;20043;-65
2021/10/30 08:08:40;;;;;;;13.13;6.07;;;;;;;9.85;49.46;100407.66;4984456;28;20117;-67
2021/10/30 08:11:06;;;;;;;7.20;4.55;;;;;;;9.56;49.96;100413.19;4982952;28;20054;-65
2021/10/30 08:13:34;;;;;;;7.20;4.63;;;;;;;9.75;49.59;100417.66;4984821;28;20609;-65
2021/10/30 08:16:04;;;;;;;7.35;4.22;;;;;;;9.78;49.42;100412.28;4982450;28;20781;-66
2021/10/30 08:18:29;;;;;;;9.55;4.10;;;;;;;9.51;50.71;100404.72;4982037;28;20479;-66
2021/10/30 08:20:58;;;;;;;11.45;5.70;;;;;;;9.47;50.91;100413.59;4977287;28;20042;-65
2021/10/30 08:23:23;;;;;;;5.72;4.45;;;;;;;9.39;51.24;100408.72;4979332;28;20093;-65
2021/10/30 08:25:52;;;;;;;12.32;5.45;;;;;;;9.25;51.91;100400.63;4970914;28;20038;-65
2021/10/30 08:28:18;;;;;;;14.48;5.82;;;;;;;9.26;52.09;100394.50;4983787;28;20038;-65
2021/10/30 08:30:46;;;;;;;8.65;5.78;;;;;;;9.15;52.58;100386.28;4981547;28;20049;-66
2021/10/30 08:33:16;;;;;;;7.18;5.38;;;;;;;9.02;52.95;100395.53;4981221;28;20452;-65
2021/10/30 08:35:42;;;;;;;9.70;5.20;;;;;;;9.06;53.10;100378.84;4982208;28;20034;-65
2021/10/30 08:38:09;;;;;;;9.10;5.85;;;;;;;8.88;54.13;100367.44;4985882;28;20424;-66
2021/10/30 08:40:41;;;;;;;7.13;5.13;;;;;;;8.91;53.82;100378.56;4984009;28;20030;-66
2021/10/30 08:43:08;;;;;;;12.27;6.35;;;;;;;9.05;53.82;100379.75;4986448;28;20046;-64
2021/10/30 08:45:35;;;;;;;13.13;5.75;;;;;;;8.79;54.57;100384.28;4986432;28;20045;-65
2021/10/30 08:48:06;;;;;;;10.02;6.38;;;;;;;9.02;54.32;100395.53;4981379;28;20427;-65
2021/10/30 08:50:32;;;;;;;9.30;5.78;;;;;;;9.06;54.30;100391.88;4983363;28;20034;-64
2021/10/30 08:53:02;;;;;;;11.32;6.00;;;;;;;8.94;54.89;100411.47;4985119;28;20121;-64
2021/10/30 08:55:29;;;;;;;16.20;6.50;;;;;;;8.95;54.89;100406.19;4985272;28;20026;-64
2021/10/30 08:58:02;;;;;;;13.40;6.43;;;;;;;8.74;55.61;100409.69;4985319;28;20035;-65
2021/10/30 09:00:28;;;;;;;12.30;6.45;;;;;;;8.77;56.06;100401.72;4981921;28;20120;-65
2021/10/30 09:03:02;;;;;;;13.85;6.60;;;;;;;8.87;55.85;100407.41;4982934;28;20037;-65
2021/10/30 09:05:28;;;;;;;11.30;6.25;;;;;;;8.87;55.92;100397.81;4985100;28;20481;-68
2021/10/30 09:07:59;;;;;;;13.40;7.00;;;;;;;8.85;55.94;100388.38;4984600;28;20049;-66
2021/10/30 09:10:29;;;;;;;10.93;6.00;;;;;;;8.92;55.95;100384.63;4984169;28;20470;-67
2021/10/30 09:13:00;;;;;;;9.90;6.60;;;;;;;8.60;57.09;100383.28;4985291;28;20416;-65
2021/10/30 09:15:43;;;;;;;13.90;6.50;;;;;;;8.72;56.76;100381.06;4960055;28;20463;-66
2021/10/30 09:18:34;;;;;;;9.50;6.20;;;;;;;8.68;57.19;100381.22;4983106;28;20034;-66
2021/10/30 09:21:02;;;;;;;8.88;5.85;;;;;;;8.78;56.80;100372.16;4982523;28;20050;-66
2021/10/30 09:23:38;;;;;;;10.32;6.68;;;;;;;8.96;56.42;100370.53;4985978;28;20050;-67
2021/10/30 09:26:05;;;;;;;11.98;6.78;;;;;;;8.49;57.92;100366.31;4979744;28;20050;-67
2021/10/30 09:28:57;;;;;;;9.55;6.63;;;;;;;8.80;56.92;100354.69;4984526;28;20061;-66
2021/10/30 09:31:24;;;;;;;17.73;7.28;;;;;;;8.89;57.14;100359.53;4974021;28;20042;-66
2021/10/30 09:33:59;;;;;;;11.48;6.68;;;;;;;8.85;56.88;100346.69;4984359;28;20117;-68
2021/10/30 09:36:30;;;;;;;10.95;6.82;;;;;;;8.94;56.89;100341.97;4985405;28;20662;-69
2021/10/30 09:39:05;;;;;;;12.02;6.63;;;;;;;8.72;57.84;100335.94;4985208;28;20449;-68
2021/10/30 09:41:32;;;;;;;10.50;6.82;;;;;;;8.81;57.66;100330.34;4985713;28;20057;-68
2021/10/30 09:43:58;;;;;;;13.43;6.90;;;;;;;8.98;57.27;100335.72;4969063;28;20030;-68
2021/10/30 09:46:29;;;;;;;13.07;7.95;;;;;;;8.83;57.68;100320.72;4984701;28;20061;-68
2021/10/30 09:49:16;;;;;;;12.63;6.07;;;;;;;8.98;57.35;100327.91;4984385;28;20038;-68
2021/10/30 09:51:46;;;;;;;20.42;7.65;;;;;;;8.84;57.40;100319.78;4982395;28;20487;-68
2021/10/30 09:54:12;;;;;;;13.55;7.80;;;;;;;8.70;58.44;100320.34;4984295;28;20104;-68
2021/10/30 09:56:39;;;;;;;11.63;6.72;;;;;;;8.74;58.56;100313.28;4985582;28;20050;-67
2021/10/30 09:59:10;;;;;;;12.35;6.80;;;;;;;8.81;58.63;100314.72;4988845;28;20034;-67
2021/10/30 10:01:37;;;;;;;12.45;7.10;;;;;;;8.62;59.14;100324.16;4983982;28;20342;-66
2021/10/30 10:04:04;;;;;;;14.18;7.85;;;;;;;8.73;58.79;100306.34;4986828;28;20091;-69
2021/10/30 10:06:31;;;;;;;12.25;6.93;;;;;;;9.10;57.87;100316.09;4985708;28;20133;-68
2021/10/30 10:08:58;;;;;;;11.93;6.35;;;;;;;9.28;57.20;100309.22;4985864;28;20037;-67
2021/10/30 10:11:25;;;;;;;14.05;7.13;;;;;;;9.06;58.04;100300.66;4983119;28;20046;-67
2021/10/30 10:13:51;;;;;;;8.70;5.57;;;;;;;9.43;57.20;100301.63;4982526;28;20030;-66
2021/10/30 10:16:22;;;;;;;10.68;6.50;;;;;;;9.30;57.23;100294.38;4984417;28;20523;-66
2021/10/30 10:18:51;;;;;;;8.82;6.13;;;;;;;9.30;57.68;100315.22;4967732;28;20384;-67
2021/10/30 10:21:23;;;;;;;11.07;6.53;;;;;;;9.06;58.50;100303.25;4973210;28;20136;-67
2021/10/30 10:23:52;;;;;;;9.18;6.00;;;;;;;9.22;57.70;100306.88;4966010;28;20038;-67
2021/10/30 10:26:20;;;;;;;13.55;7.72;;;;;;;9.29;57.52;100294.44;4984780;28;20035;-69
2021/10/30 10:29:02;;;;;;;10.70;6.60;;;;;;;9.28;57.64;100283.16;4983552;28;20281;-68
2021/10/30 10:31:27;;;;;;;10.00;6.10;;;;;;;9.09;58.51;100280.50;4980758;28;20431;-68
2021/10/30 10:34:08;;;;;;;11.10;7.07;;;;;;;9.02;58.54;100284.28;4983644;28;20054;-67
2021/10/30 10:36:34;;;;;;;13.63;6.82;;;;;;;8.95;58.91;100281.09;4980851;28;20075;-67
2021/10/30 10:39:02;;;;;;;12.38;6.75;;;;;;;9.40;57.66;100280.00;4983299;28;20034;-68
2021/10/30 10:41:37;;;;;;;14.32;7.60;;;;;;;9.26;57.92;100274.56;4983141;28;20435;-68
2021/10/30 10:44:12;;;;;;;13.93;6.47;;;;;;;9.50;58.04;100259.56;4985552;28;20037;-68
2021/10/30 10:46:47;;;;;;;16.67;7.57;;;;;;;9.28;57.98;100256.25;4984709;28;20072;-68
2021/10/30 10:49:27;;;;;;;14.25;7.10;;;;;;;9.51;58.02;100263.03;4984085;28;20456;-68
2021/10/30 10:55:01;;;;;;;13.75;6.95;;;;;;;9.95;57.25;100260.16;4982843;28;20034;-67
2021/10/30 10:57:48;;;;;;;12.18;6.93;;;;;;;9.87;57.35;100267.50;4979695;28;20038;-66
2021/10/30 11:00:21;;;;;;;12.02;7.65;;;;;;;9.95;56.47;100263.63;4984890;28;20038;-67
2021/10/30 11:02:49;;;;;;;15.15;7.85;;;;;;;10.15;56.49;100257.44;4983517;28;20129;-67
2021/10/30 11:05:19;;;;;;;9.65;6.25;;;;;;;10.36;55.34;100242.47;4981977;28;20542;-66
2021/10/30 11:07:50;;;;;;;13.25;7.00;;;;;;;10.18;55.50;100235.56;4982860;28;20045;-65
2021/10/30 11:10:25;;;;;;;11.57;6.35;;;;;;;10.35;55.77;100240.81;4966411;28;20042;-66
2021/10/30 11:13:00;;;;;;;;;;;;;;;10.20;55.68;100247.63;4983017;28;20228;-66
2021/10/30 11:15:37;;;;;;;9.25;5.70;;;;;;;10.45;55.09;100235.13;4982828;28;19923;-67
2021/10/30 11:18:09;;;;;;;9.18;4.55;;;;;;;10.40;54.96;100245.81;4981325;28;20192;-66
2021/10/30 11:20:45;;;;;;;6.90;4.47;;;;;;;9.87;56.58;100244.84;4982761;28;20100;-66
2021/10/30 11:23:30;;;;;;;8.48;4.80;;;;;;;10.15;55.74;100233.09;5082178;27;1265424;-67
2021/10/30 11:26:10;;;;;;;12.00;5.35;;;;;;;9.98;56.04;100236.50;5083126;28;20033;-67
2021/10/30 11:28:38;;;;;;;10.93;5.28;;;;;;;10.24;55.94;100218.75;5036398;28;20457;-66
2021/10/30 11:31:30;;;;;;;7.50;4.85;;;;;;;10.61;54.95;100221.19;5035125;28;20535;-68
2021/10/30 11:34:05;;;;;;;9.50;5.78;;;;;;;10.47;55.25;100208.00;5035473;28;20073;-67
2021/10/30 11:36:35;;;;;;;17.75;10.50;;;;;;;10.28;55.65;100217.66;5036030;28;20037;-69